createdAt,value
2016-04-12T00:00:15.720Z,0
2016-04-12T00:01:15.675Z,0
2016-04-12T00:02:15.631Z,0
2016-04-12T00:03:15.587Z,0
2016-04-12T00:04:15.527Z,0
2016-04-12T00:05:15.467Z,0
2016-04-12T00:06:15.438Z,0
2016-04-12T00:07:15.378Z,0
2016-04-12T00:08:15.199Z,0
2016-04-12T00:09:15.254Z,0
2016-04-12T00:10:15.195Z,0
2016-04-12T00:11:15.135Z,0
2016-04-12T00:12:15.091Z,0
2016-04-12T00:13:15.047Z,0
2016-04-12T00:14:14.987Z,0
2016-04-12T00:15:14.927Z,0
2016-04-12T00:16:14.883Z,0
2016-04-12T00:17:14.822Z,0
2016-04-12T00:18:14.794Z,0
2016-04-12T00:19:14.735Z,0
2016-04-12T00:20:14.658Z,0
2016-04-12T00:21:14.615Z,0
2016-04-12T00:22:14.570Z,0
2016-04-12T00:23:14.558Z,0
2016-04-12T00:24:14.326Z,0
2016-04-12T00:25:14.391Z,0
2016-04-12T00:26:14.362Z,0
2016-04-12T00:27:14.303Z,0
2016-04-12T00:28:14.258Z,0
2016-04-12T00:29:14.215Z,0
2016-04-12T00:30:14.133Z,0
2016-04-12T00:31:13.936Z,0
2016-04-12T00:32:13.869Z,0
2016-04-12T00:33:13.970Z,0
2016-04-12T00:34:13.926Z,0
2016-04-12T00:35:13.865Z,0
2016-04-12T00:36:13.822Z,0
2016-04-12T00:37:13.746Z,0
2016-04-12T00:38:13.703Z,0
2016-04-12T00:39:13.659Z,0
2016-04-12T00:40:13.583Z,0
2016-04-12T00:41:13.554Z,0
2016-04-12T00:42:13.494Z,0
2016-04-12T00:43:13.435Z,0
2016-04-12T00:44:13.594Z,0
2016-04-12T00:45:13.314Z,0
2016-04-12T00:46:13.256Z,0
2016-04-12T00:47:13.242Z,0
2016-04-12T00:48:13.167Z,0
2016-04-12T00:49:13.107Z,0
2016-04-12T00:50:13.079Z,0
2016-04-12T00:51:12.284Z,0
2016-04-12T00:52:12.959Z,0
2016-04-12T00:53:12.914Z,0
2016-04-12T00:54:12.839Z,0
2016-04-12T00:55:12.639Z,0
2016-04-12T00:56:12.752Z,0
2016-04-12T00:57:12.691Z,0
2016-04-12T00:58:12.646Z,0
2016-04-12T00:59:12.572Z,0
2016-04-12T01:00:12.558Z,0
2016-04-12T01:01:12.467Z,0
2016-04-12T01:02:12.424Z,0
2016-04-12T01:03:12.363Z,0
2016-04-12T01:04:12.319Z,0
2016-04-12T01:05:12.259Z,0
2016-04-12T01:06:12.199Z,0
2016-04-12T01:07:12.171Z,0
2016-04-12T01:08:12.112Z,0
2016-04-12T01:09:12.036Z,0
2016-04-12T01:10:12.023Z,0
2016-04-12T01:11:11.948Z,0
2016-04-12T01:12:11.873Z,0
2016-04-12T01:13:11.828Z,0
2016-04-12T01:14:11.767Z,0
2016-04-12T01:15:11.708Z,0
2016-04-12T01:16:11.664Z,0
2016-04-12T01:17:11.464Z,0
2016-04-12T01:18:11.575Z,0
2016-04-12T01:19:11.500Z,0
2016-04-12T01:20:11.441Z,0
2016-04-12T01:21:11.396Z,0
2016-04-12T01:22:11.336Z,0
2016-04-12T01:23:11.277Z,0
2016-04-12T01:24:11.233Z,0
2016-04-12T01:25:11.204Z,0
2016-04-12T01:26:11.128Z,0
2016-04-12T01:27:11.069Z,0
2016-04-12T01:28:11.024Z,0
2016-04-12T01:29:10.965Z,0
2016-04-12T01:30:10.889Z,0
2016-04-12T01:31:10.845Z,0
2016-04-12T01:32:10.785Z,0
2016-04-12T01:33:10.757Z,0
2016-04-12T01:34:10.696Z,0
2016-04-12T01:35:10.621Z,0
2016-04-12T01:36:10.577Z,0
2016-04-12T01:37:10.532Z,0
2016-04-12T01:38:10.489Z,0
2016-04-12T01:39:10.413Z,0
2016-04-12T01:40:09.634Z,0
2016-04-12T01:41:10.356Z,0
2016-04-12T01:42:10.250Z,0
2016-04-12T01:43:10.205Z,0
2016-04-12T01:44:10.131Z,0
2016-04-12T01:45:09.367Z,0
2016-04-12T01:46:10.026Z,0
2016-04-12T01:47:10.013Z,0
2016-04-12T01:48:09.937Z,0
2016-04-12T01:49:09.722Z,0
2016-04-12T01:50:09.817Z,0
2016-04-12T01:51:09.774Z,0
2016-04-12T01:52:09.714Z,0
2016-04-12T01:53:09.669Z,0
2016-04-12T01:54:09.610Z,0
2016-04-12T01:55:09.550Z,0
2016-04-12T01:56:09.506Z,0
2016-04-12T01:57:09.447Z,0
2016-04-12T01:58:09.386Z,0
2016-04-12T01:59:09.326Z,0
2016-04-12T02:00:09.267Z,0
2016-04-12T02:01:09.222Z,0
2016-04-12T02:02:09.210Z,0
2016-04-12T02:03:09.119Z,0
2016-04-12T02:04:09.059Z,0
2016-04-12T02:05:09.015Z,0
2016-04-12T02:06:08.939Z,0
2016-04-12T02:07:08.895Z,0
2016-04-12T02:08:08.851Z,0
2016-04-12T02:09:08.775Z,0
2016-04-12T02:10:08.731Z,0
2016-04-12T02:11:08.670Z,0
2016-04-12T02:12:08.626Z,0
2016-04-12T02:13:08.567Z,0
2016-04-12T02:14:08.523Z,0
2016-04-12T02:15:08.447Z,0
2016-04-12T02:16:08.419Z,0
2016-04-12T02:17:08.312Z,0
2016-04-12T02:18:08.284Z,0
2016-04-12T02:19:07.506Z,0
2016-04-12T02:20:08.211Z,0
2016-04-12T02:21:08.136Z,0
2016-04-12T02:22:08.061Z,0
2016-04-12T02:23:08.016Z,0
2016-04-12T02:24:07.972Z,0
2016-04-12T02:25:07.912Z,0
2016-04-12T02:26:07.868Z,0
2016-04-12T02:27:07.792Z,0
2016-04-12T02:28:07.748Z,0
2016-04-12T02:29:07.672Z,0
2016-04-12T02:30:07.644Z,0
2016-04-12T02:31:07.584Z,0
2016-04-12T02:32:07.149Z,0
2016-04-12T02:33:07.465Z,0
2016-04-12T02:34:07.405Z,0
2016-04-12T02:35:07.377Z,0
2016-04-12T02:36:07.317Z,0
2016-04-12T02:37:07.273Z,0
2016-04-12T02:38:07.197Z,0
2016-04-12T02:39:07.153Z,0
2016-04-12T02:40:07.124Z,0
2016-04-12T02:41:07.049Z,0
2016-04-12T02:42:07.036Z,0
2016-04-12T02:43:06.976Z,0
2016-04-12T02:44:06.885Z,0
2016-04-12T02:45:06.841Z,0
2016-04-12T02:46:06.781Z,0
2016-04-12T02:47:06.846Z,0
2016-04-12T02:48:06.645Z,0
2016-04-12T02:49:06.617Z,0
2016-04-12T02:50:06.542Z,0
2016-04-12T02:51:06.513Z,0
2016-04-12T02:52:06.844Z,0
2016-04-12T02:53:06.394Z,0
2016-04-12T02:54:06.333Z,0
2016-04-12T02:55:06.289Z,0
2016-04-12T02:56:06.214Z,0
2016-04-12T02:57:06.185Z,0
2016-04-12T02:58:06.110Z,0
2016-04-12T02:59:06.049Z,0
2016-04-12T03:00:06.037Z,0
2016-04-12T03:01:05.962Z,0
2016-04-12T03:02:05.918Z,0
2016-04-12T03:03:05.857Z,0
2016-04-12T03:04:05.782Z,0
2016-04-12T03:05:05.738Z,0
2016-04-12T03:06:05.693Z,0
2016-04-12T03:07:05.634Z,0
2016-04-12T03:08:05.606Z,0
2016-04-12T03:09:05.529Z,0
2016-04-12T03:10:05.486Z,0
2016-04-12T03:11:05.426Z,0
2016-04-12T03:12:05.351Z,0
2016-04-12T03:13:05.323Z,0
2016-04-12T03:14:05.262Z,0
2016-04-12T03:15:05.203Z,0
2016-04-12T03:16:05.158Z,0
2016-04-12T03:17:05.130Z,0
2016-04-12T03:18:05.039Z,0
2016-04-12T03:19:04.978Z,0
2016-04-12T03:20:04.920Z,0
2016-04-12T03:21:04.876Z,0
2016-04-12T03:22:04.815Z,0
2016-04-12T03:23:04.740Z,0
2016-04-12T03:24:04.711Z,0
2016-04-12T03:25:04.652Z,0
2016-04-12T03:26:04.592Z,0
2016-04-12T03:27:04.547Z,0
2016-04-12T03:28:04.488Z,0
2016-04-12T03:29:04.287Z,0
2016-04-12T03:30:04.368Z,0
2016-04-12T03:31:04.324Z,0
2016-04-12T03:32:04.279Z,0
2016-04-12T03:33:04.251Z,0
2016-04-12T03:34:04.160Z,0
2016-04-12T03:35:04.116Z,0
2016-04-12T03:36:04.071Z,0
2016-04-12T03:37:03.996Z,0
2016-04-12T03:38:03.937Z,0
2016-04-12T03:39:03.908Z,0
2016-04-12T03:40:03.833Z,0
2016-04-12T03:41:03.804Z,0
2016-04-12T03:42:03.729Z,0
2016-04-12T03:43:03.684Z,0
2016-04-12T03:44:03.640Z,0
2016-04-12T03:45:03.596Z,0
2016-04-12T03:46:03.504Z,0
2016-04-12T03:47:03.476Z,0
2016-04-12T03:48:03.400Z,0
2016-04-12T03:49:03.356Z,0
2016-04-12T03:50:03.297Z,0
2016-04-12T03:51:03.252Z,0
2016-04-12T03:52:03.208Z,0
2016-04-12T03:53:03.148Z,0
2016-04-12T03:54:03.089Z,0
2016-04-12T03:55:03.029Z,0
2016-04-12T03:56:02.969Z,0
2016-04-12T03:57:02.941Z,0
2016-04-12T03:58:02.740Z,0
2016-04-12T03:59:02.806Z,0
2016-04-12T04:00:02.761Z,0
2016-04-12T04:01:02.702Z,0
2016-04-12T04:02:02.657Z,0
2016-04-12T04:03:02.425Z,0
2016-04-12T04:04:02.538Z,0
2016-04-12T04:05:02.494Z,0
2016-04-12T04:06:02.433Z,0
2016-04-12T04:07:02.389Z,0
2016-04-12T04:08:02.188Z,0
2016-04-12T04:09:02.271Z,0
2016-04-12T04:10:02.226Z,0
2016-04-12T04:11:02.166Z,0
2016-04-12T04:12:02.121Z,0
2016-04-12T04:13:02.062Z,0
2016-04-12T04:14:02.018Z,0
2016-04-12T04:15:01.989Z,0
2016-04-12T04:16:01.148Z,0
2016-04-12T04:17:01.837Z,0
2016-04-12T04:18:01.795Z,0
2016-04-12T04:19:01.734Z,0
2016-04-12T04:20:01.690Z,0
2016-04-12T04:21:01.630Z,0
2016-04-12T04:22:01.586Z,0
2016-04-12T04:23:01.526Z,0
2016-04-12T04:24:01.481Z,0
2016-04-12T04:25:01.406Z,0
2016-04-12T04:26:01.378Z,0
2016-04-12T04:27:01.319Z,0
2016-04-12T04:28:01.258Z,0
2016-04-12T04:29:01.199Z,0
2016-04-12T04:30:01.139Z,0
2016-04-12T04:31:01.094Z,0
2016-04-12T04:32:01.035Z,0
2016-04-12T04:33:00.991Z,0
2016-04-12T04:34:00.930Z,0
2016-04-12T04:35:00.871Z,0
2016-04-12T04:36:00.826Z,0
2016-04-12T04:37:00.783Z,0
2016-04-12T04:38:00.723Z,0
2016-04-12T04:39:00.679Z,0
2016-04-12T04:40:00.604Z,0
2016-04-12T04:41:00.559Z,0
2016-04-12T04:42:00.499Z,0
2016-04-12T04:43:00.440Z,0
2016-04-12T04:44:00.395Z,0
2016-04-12T04:45:00.351Z,0
2016-04-12T04:46:00.291Z,0
2016-04-12T04:47:00.075Z,0
2016-04-12T04:48:00.187Z,0
2016-04-12T04:49:00.159Z,4
2016-04-12T04:50:00.052Z,4
2016-04-12T04:51:00.039Z,0
2016-04-12T04:51:59.979Z,4
2016-04-12T04:52:59.934Z,4
2016-04-12T04:53:59.876Z,0
2016-04-12T04:54:59.815Z,0
2016-04-12T04:55:59.772Z,0
2016-04-12T04:56:59.711Z,0
2016-04-12T04:57:59.651Z,0
2016-04-12T04:58:59.608Z,0
2016-04-12T04:59:59.563Z,0
2016-04-12T05:00:59.503Z,0
2016-04-12T05:01:59.444Z,0
2016-04-12T05:02:59.399Z,0
2016-04-12T05:03:59.324Z,0
2016-04-12T05:04:59.280Z,4
2016-04-12T05:05:59.236Z,0
2016-04-12T05:06:59.176Z,0
2016-04-12T05:07:59.116Z,0
2016-04-12T05:08:59.057Z,0
2016-04-12T05:09:59.013Z,4
2016-04-12T05:10:58.946Z,0
2016-04-12T05:11:58.917Z,0
2016-04-12T05:13:03.890Z,0
2016-04-12T05:13:58.798Z,0
2016-04-12T05:14:58.769Z,0
2016-04-12T05:15:58.695Z,0
2016-04-12T05:16:58.634Z,0
2016-04-12T05:17:58.575Z,4
2016-04-12T05:18:58.545Z,0
2016-04-12T05:19:58.470Z,0
2016-04-12T05:20:58.489Z,0
2016-04-12T05:21:58.397Z,0
2016-04-12T05:22:58.322Z,0
2016-04-12T05:23:58.278Z,0
2016-04-12T05:24:58.219Z,0
2016-04-12T05:25:58.144Z,0
2016-04-12T05:26:58.099Z,0
2016-04-12T05:27:58.039Z,0
2016-04-12T05:28:58.010Z,0
2016-04-12T05:29:57.935Z,4
2016-04-12T05:30:57.875Z,0
2016-04-12T05:31:57.846Z,0
2016-04-12T05:32:57.974Z,4
2016-04-12T05:33:57.726Z,0
2016-04-12T05:34:57.668Z,4
2016-04-12T05:35:57.623Z,4
2016-04-12T05:36:57.562Z,0
2016-04-12T05:37:57.519Z,4
2016-04-12T05:38:57.459Z,4
2016-04-12T05:39:57.634Z,4
2016-04-12T05:40:57.371Z,4
2016-04-12T05:41:57.295Z,4
2016-04-12T05:42:57.251Z,4
2016-04-12T05:43:57.191Z,4
2016-04-12T05:44:57.163Z,4
2016-04-12T05:45:57.103Z,4
2016-04-12T05:46:57.075Z,4
2016-04-12T05:47:56.967Z,4
2016-04-12T05:48:56.939Z,4
2016-04-12T05:49:56.879Z,4
2016-04-12T05:50:56.803Z,4
2016-04-12T05:51:56.791Z,4
2016-04-12T05:52:56.747Z,4
2016-04-12T05:53:56.656Z,4
2016-04-12T05:54:56.611Z,4
2016-04-12T05:55:56.552Z,4
2016-04-12T05:56:56.508Z,4
2016-04-12T05:57:56.463Z,8
2016-04-12T05:58:56.419Z,8
2016-04-12T05:59:56.360Z,8
2016-04-12T06:00:56.283Z,8
2016-04-12T06:01:55.505Z,8
2016-04-12T06:02:56.524Z,12
2016-04-12T06:03:56.152Z,12
2016-04-12T06:04:56.076Z,12
2016-04-12T06:05:56.031Z,8
2016-04-12T06:06:55.972Z,8
2016-04-12T06:07:55.927Z,4
2016-04-12T06:08:55.868Z,8
2016-04-12T06:09:55.824Z,8
2016-04-12T06:10:55.779Z,8
2016-04-12T06:11:55.704Z,8
2016-04-12T06:12:55.659Z,8
2016-04-12T06:13:55.600Z,8
2016-04-12T06:14:55.571Z,8
2016-04-12T06:15:55.512Z,8
2016-04-12T06:16:55.467Z,12
2016-04-12T06:17:55.298Z,12
2016-04-12T06:18:55.348Z,12
2016-04-12T06:19:55.303Z,12
2016-04-12T06:20:55.244Z,12
2016-04-12T06:21:55.215Z,12
2016-04-12T06:22:55.125Z,16
2016-04-12T06:23:55.080Z,16
2016-04-12T06:24:55.067Z,16
2016-04-12T06:25:54.961Z,20
2016-04-12T06:26:54.932Z,16
2016-04-12T06:27:54.871Z,20
2016-04-12T06:28:54.813Z,20
2016-04-12T06:29:54.768Z,16
2016-04-12T06:30:54.724Z,12
2016-04-12T06:31:54.680Z,8
2016-04-12T06:32:54.776Z,8
2016-04-12T06:33:54.560Z,8
2016-04-12T06:34:54.516Z,4
2016-04-12T06:35:54.441Z,4
2016-04-12T06:36:54.396Z,4
2016-04-12T06:37:54.337Z,4
2016-04-12T06:38:54.308Z,4
2016-04-12T06:39:54.249Z,4
2016-04-12T06:40:54.204Z,0
2016-04-12T06:41:54.128Z,4
2016-04-12T06:42:54.100Z,4
2016-04-12T06:43:54.056Z,0
2016-04-12T06:44:53.965Z,0
2016-04-12T06:45:53.936Z,4
2016-04-12T06:46:53.861Z,0
2016-04-12T06:47:53.676Z,0
2016-04-12T06:48:53.772Z,0
2016-04-12T06:49:52.962Z,0
2016-04-12T06:50:53.653Z,0
2016-04-12T06:51:53.609Z,0
2016-04-12T06:52:53.564Z,0
2016-04-12T06:53:53.489Z,0
2016-04-12T06:54:53.445Z,0
2016-04-12T06:55:53.386Z,0
2016-04-12T06:56:53.325Z,0
2016-04-12T06:57:53.281Z,0
2016-04-12T06:58:53.221Z,0
2016-04-12T06:59:53.177Z,0
2016-04-12T07:00:53.132Z,0
2016-04-12T07:01:53.088Z,0
2016-04-12T07:02:53.091Z,0
2016-04-12T07:03:54.344Z,0
2016-04-12T07:04:52.893Z,0
2016-04-12T07:05:52.833Z,0
2016-04-12T07:06:52.790Z,4
2016-04-12T07:07:52.745Z,4
2016-04-12T07:08:52.685Z,4
2016-04-12T07:09:52.657Z,0
2016-04-12T07:10:52.596Z,0
2016-04-12T07:11:52.521Z,0
2016-04-12T07:12:52.524Z,0
2016-04-12T07:13:52.434Z,4
2016-04-12T07:14:52.389Z,4
2016-04-12T07:15:52.376Z,0
2016-04-12T07:16:52.285Z,0
2016-04-12T07:17:52.272Z,4
2016-04-12T07:18:52.165Z,4
2016-04-12T07:19:52.262Z,0
2016-04-12T07:20:52.062Z,0
2016-04-12T07:21:52.017Z,4
2016-04-12T07:22:51.973Z,0
2016-04-12T07:23:51.897Z,0
2016-04-12T07:24:51.838Z,4
2016-04-12T07:25:52.075Z,4
2016-04-12T07:26:52.062Z,4
2016-04-12T07:27:51.939Z,0
2016-04-12T07:28:52.005Z,0
2016-04-12T07:29:51.867Z,0
2016-04-12T07:30:51.885Z,4
2016-04-12T07:31:51.732Z,4
2016-04-12T07:32:51.703Z,4
2016-04-12T07:33:51.659Z,4
2016-04-12T07:34:51.302Z,4
2016-04-12T07:35:51.273Z,4
2016-04-12T07:36:51.214Z,4
2016-04-12T07:37:51.154Z,4
2016-04-12T07:38:51.126Z,0
2016-04-12T07:39:51.066Z,4
2016-04-12T07:40:51.006Z,4
2016-04-12T07:41:50.777Z,4
2016-04-12T07:42:50.828Z,0
2016-04-12T07:43:50.942Z,4
2016-04-12T07:44:50.929Z,4
2016-04-12T07:45:50.934Z,4
2016-04-12T07:46:50.920Z,4
2016-04-12T07:47:50.909Z,8
2016-04-12T07:48:50.849Z,4
2016-04-12T07:49:50.839Z,4
2016-04-12T07:50:50.781Z,4
2016-04-12T07:51:50.738Z,4
2016-04-12T07:52:50.700Z,12
2016-04-12T07:53:50.661Z,12
2016-04-12T07:54:50.607Z,16
2016-04-12T07:55:50.554Z,16
2016-04-12T07:56:50.532Z,20
2016-04-12T07:57:50.474Z,20
2016-04-12T07:58:50.417Z,16
2016-04-12T07:59:50.375Z,16
2016-04-12T08:00:50.332Z,16
2016-04-12T08:01:50.274Z,16
2016-04-12T08:02:50.247Z,16
2016-04-12T08:03:50.157Z,16
2016-04-12T08:04:50.098Z,16
2016-04-12T08:05:50.054Z,20
2016-04-12T08:06:50.011Z,20
2016-04-12T08:07:49.952Z,24
2016-04-12T08:08:49.881Z,24
2016-04-12T08:09:49.711Z,24
2016-04-12T08:10:49.653Z,28
2016-04-12T08:11:49.734Z,28
2016-04-12T08:12:49.674Z,24
2016-04-12T08:13:49.635Z,20
2016-04-12T08:14:49.575Z,24
2016-04-12T08:15:49.531Z,24
2016-04-12T08:16:49.472Z,28
2016-04-12T08:17:49.427Z,32
2016-04-12T08:18:49.366Z,36
2016-04-12T08:19:49.355Z,36
2016-04-12T08:20:49.279Z,40
2016-04-12T08:21:49.219Z,36
2016-04-12T08:22:49.174Z,28
2016-04-12T08:23:49.100Z,28
2016-04-12T08:24:49.071Z,24
2016-04-12T08:25:49.167Z,20
2016-04-12T08:26:48.966Z,20
2016-04-12T08:27:48.891Z,20
2016-04-12T08:28:48.847Z,16
2016-04-12T08:29:48.804Z,20
2016-04-12T08:30:48.759Z,20
2016-04-12T08:31:48.793Z,16
2016-04-12T08:32:48.639Z,16
2016-04-12T08:33:48.579Z,16
2016-04-12T08:34:48.535Z,20
2016-04-12T08:35:48.491Z,20
2016-04-12T08:36:48.415Z,16
2016-04-12T08:37:48.371Z,20
2016-04-12T08:38:48.343Z,16
2016-04-12T08:39:48.299Z,16
2016-04-12T08:40:48.254Z,20
2016-04-12T08:41:48.226Z,16
2016-04-12T08:42:48.120Z,16
2016-04-12T08:43:48.075Z,16
2016-04-12T08:44:48.031Z,16
2016-04-12T08:45:47.800Z,16
2016-04-12T08:46:47.927Z,16
2016-04-12T08:47:47.852Z,12
2016-04-12T08:48:47.808Z,16
2016-04-12T08:49:47.763Z,16
2016-04-12T08:50:47.719Z,12
2016-04-12T08:51:47.644Z,12
2016-04-12T08:52:47.583Z,12
2016-04-12T08:53:47.555Z,16
2016-04-12T08:54:47.496Z,16
2016-04-12T08:55:47.436Z,16
2016-04-12T08:56:47.391Z,12
2016-04-12T08:57:47.347Z,12
2016-04-12T08:58:47.319Z,16
2016-04-12T08:59:47.227Z,20
2016-04-12T09:00:47.168Z,16
2016-04-12T09:01:47.124Z,16
2016-04-12T09:02:47.063Z,16
2016-04-12T09:03:47.035Z,16
2016-04-12T09:04:46.959Z,16
2016-04-12T09:05:46.931Z,16
2016-04-12T09:06:46.871Z,16
2016-04-12T09:07:46.796Z,16
2016-04-12T09:08:46.751Z,16
2016-04-12T09:09:46.697Z,12
2016-04-12T09:10:46.653Z,12
2016-04-12T09:11:46.593Z,12
2016-04-12T09:12:46.548Z,12
2016-04-12T09:13:46.505Z,16
2016-04-12T09:14:46.428Z,12
2016-04-12T09:15:46.400Z,16
2016-04-12T09:16:46.341Z,16
2016-04-12T09:17:46.281Z,16
2016-04-12T09:18:46.268Z,16
2016-04-12T09:19:46.192Z,16
2016-04-12T09:20:46.132Z,16
2016-04-12T09:21:46.104Z,16
2016-04-12T09:22:46.060Z,16
2016-04-12T09:23:45.985Z,16
2016-04-12T09:24:45.924Z,16
2016-04-12T09:25:45.880Z,16
2016-04-12T09:26:45.821Z,16
2016-04-12T09:27:45.776Z,16
2016-04-12T09:28:45.748Z,16
2016-04-12T09:29:45.657Z,16
2016-04-12T09:30:45.613Z,16
2016-04-12T09:31:45.568Z,20
2016-04-12T09:32:45.509Z,16
2016-04-12T09:33:45.527Z,16
2016-04-12T09:34:45.405Z,16
2016-04-12T09:35:45.360Z,20
2016-04-12T09:36:45.317Z,20
2016-04-12T09:37:45.272Z,20
2016-04-12T09:38:45.197Z,24
2016-04-12T09:39:45.153Z,20
2016-04-12T09:40:45.124Z,24
2016-04-12T09:41:45.033Z,24
2016-04-12T09:42:44.989Z,24
2016-04-12T09:43:44.960Z,24
2016-04-12T09:44:45.166Z,24
2016-04-12T09:45:44.841Z,24
2016-04-12T09:46:44.797Z,28
2016-04-12T09:47:44.736Z,24
2016-04-12T09:48:44.849Z,32
2016-04-12T09:49:44.645Z,32
2016-04-12T09:50:44.570Z,40
2016-04-12T09:51:44.525Z,44
2016-04-12T09:52:44.496Z,52
2016-04-12T09:53:44.421Z,56
2016-04-12T09:54:44.394Z,52
2016-04-12T09:55:44.318Z,52
2016-04-12T09:56:44.305Z,52
2016-04-12T09:57:44.229Z,56
2016-04-12T09:58:44.232Z,64
2016-04-12T09:59:44.110Z,68
2016-04-12T10:00:44.082Z,76
2016-04-12T10:01:44.038Z,56
2016-04-12T10:02:44.009Z,80
2016-04-12T10:03:43.776Z,128
2016-04-12T10:04:43.873Z,80
2016-04-12T10:05:43.798Z,68
2016-04-12T10:06:43.784Z,92
2016-04-12T10:07:43.773Z,136
2016-04-12T10:08:43.681Z,148
2016-04-12T10:09:43.606Z,92
2016-04-12T10:10:43.576Z,144
2016-04-12T10:11:43.533Z,148
2016-04-12T10:12:43.489Z,144
2016-04-12T10:13:43.413Z,140
2016-04-12T10:14:43.384Z,136
2016-04-12T10:15:43.339Z,128
2016-04-12T10:16:43.265Z,128
2016-04-12T10:17:43.205Z,108
2016-04-12T10:18:43.177Z,76
2016-04-12T10:19:43.116Z,68
2016-04-12T10:20:43.057Z,72
2016-04-12T10:21:43.013Z,88
2016-04-12T10:22:43.000Z,136
2016-04-12T10:23:42.941Z,136
2016-04-12T10:24:42.880Z,136
2016-04-12T10:25:42.851Z,132
2016-04-12T10:26:42.651Z,140
2016-04-12T10:27:42.732Z,140
2016-04-12T10:28:42.688Z,144
2016-04-12T10:29:42.627Z,144
2016-04-12T10:30:42.599Z,140
2016-04-12T10:31:42.524Z,100
2016-04-12T10:32:42.479Z,140
2016-04-12T10:33:42.670Z,136
2016-04-12T10:34:42.407Z,120
2016-04-12T10:35:42.081Z,136
2016-04-12T10:36:42.288Z,120
2016-04-12T10:37:42.212Z,140
2016-04-12T10:38:42.168Z,136
2016-04-12T10:39:42.139Z,136
2016-04-12T10:40:42.095Z,136
2016-04-12T10:41:42.050Z,136
2016-04-12T10:42:41.975Z,136
2016-04-12T10:43:41.932Z,140
2016-04-12T10:44:41.903Z,136
2016-04-12T10:45:41.843Z,120
2016-04-12T10:46:42.267Z,136
2016-04-12T10:47:41.739Z,136
2016-04-12T10:48:41.711Z,132
2016-04-12T10:49:41.651Z,136
2016-04-12T10:50:41.591Z,136
2016-04-12T10:51:41.530Z,124
2016-04-12T10:52:41.487Z,136
2016-04-12T10:53:41.458Z,136
2016-04-12T10:54:41.414Z,136
2016-04-12T10:55:41.355Z,136
2016-04-12T10:56:41.294Z,136
2016-04-12T10:57:40.516Z,112
2016-04-12T10:58:41.205Z,136
2016-04-12T10:59:41.162Z,132
2016-04-12T11:00:41.102Z,136
2016-04-12T11:01:41.057Z,136
2016-04-12T11:02:41.029Z,132
2016-04-12T11:03:40.985Z,132
2016-04-12T11:04:40.800Z,132
2016-04-12T11:05:40.881Z,132
2016-04-12T11:06:40.806Z,252
2016-04-12T11:07:40.761Z,248
2016-04-12T11:08:40.732Z,244
2016-04-12T11:09:40.674Z,244
2016-04-12T11:10:40.613Z,216
2016-04-12T11:11:40.569Z,212
2016-04-12T11:12:40.525Z,204
2016-04-12T11:13:40.464Z,200
2016-04-12T11:14:40.437Z,200
2016-04-12T11:15:40.392Z,200
2016-04-12T11:16:40.333Z,196
2016-04-12T11:17:40.272Z,192
2016-04-12T11:18:40.228Z,192
2016-04-12T11:19:40.184Z,188
2016-04-12T11:20:40.124Z,216
2016-04-12T11:21:40.111Z,220
2016-04-12T11:22:40.052Z,220
2016-04-12T11:23:39.992Z,220
2016-04-12T11:24:39.980Z,220
2016-04-12T11:25:39.888Z,220
2016-04-12T11:26:39.860Z,220
2016-04-12T11:27:39.815Z,220
2016-04-12T11:28:39.771Z,216
2016-04-12T11:29:39.696Z,216
2016-04-12T11:30:39.667Z,220
2016-04-12T11:31:39.624Z,216
2016-04-12T11:32:39.562Z,216
2016-04-12T11:33:39.535Z,216
2016-04-12T11:34:39.460Z,216
2016-04-12T11:35:39.446Z,216
2016-04-12T11:36:39.371Z,212
2016-04-12T11:37:39.342Z,212
2016-04-12T11:38:39.282Z,212
2016-04-12T11:39:39.237Z,216
2016-04-12T11:40:39.178Z,216
2016-04-12T11:41:39.134Z,216
2016-04-12T11:42:39.073Z,216
2016-04-12T11:43:39.030Z,212
2016-04-12T11:44:39.002Z,216
2016-04-12T11:45:38.942Z,216
2016-04-12T11:46:38.881Z,216
2016-04-12T11:47:38.837Z,216
2016-04-12T11:48:38.809Z,212
2016-04-12T11:49:38.750Z,216
2016-04-12T11:50:38.689Z,212
2016-04-12T11:51:38.677Z,216
2016-04-12T11:52:38.585Z,212
2016-04-12T11:53:38.541Z,212
2016-04-12T11:54:38.513Z,212
2016-04-12T11:55:38.469Z,212
2016-04-12T11:56:38.268Z,212
2016-04-12T11:57:38.349Z,208
2016-04-12T11:58:38.305Z,212
2016-04-12T11:59:38.245Z,212
2016-04-12T12:00:38.202Z,208
2016-04-12T12:01:38.157Z,208
2016-04-12T12:02:38.113Z,208
2016-04-12T12:03:38.068Z,208
2016-04-12T12:04:38.024Z,208
2016-04-12T12:05:37.980Z,212
2016-04-12T12:06:37.951Z,212
2016-04-12T12:07:37.876Z,212
2016-04-12T12:08:37.832Z,212
2016-04-12T12:09:37.803Z,208
2016-04-12T12:10:37.743Z,212
2016-04-12T12:11:37.698Z,212
2016-04-12T12:12:37.654Z,212
2016-04-12T12:13:37.596Z,212
2016-04-12T12:14:37.551Z,208
2016-04-12T12:15:37.506Z,208
2016-04-12T12:16:37.462Z,208
2016-04-12T12:17:37.497Z,208
2016-04-12T12:18:37.375Z,208
2016-04-12T12:19:37.503Z,208
2016-04-12T12:20:37.270Z,208
2016-04-12T12:21:37.226Z,204
2016-04-12T12:22:37.182Z,204
2016-04-12T12:23:37.122Z,204
2016-04-12T12:24:37.078Z,200
2016-04-12T12:25:37.065Z,200
2016-04-12T12:26:37.005Z,200
2016-04-12T12:27:36.961Z,200
2016-04-12T12:28:36.917Z,196
2016-04-12T12:29:36.872Z,196
2016-04-12T12:30:36.813Z,196
2016-04-12T12:31:36.753Z,192
2016-04-12T12:32:36.708Z,196
2016-04-12T12:33:36.680Z,192
2016-04-12T12:34:36.621Z,196
2016-04-12T12:35:36.576Z,192
2016-04-12T12:36:36.532Z,192
2016-04-12T12:37:36.488Z,196
2016-04-12T12:38:36.413Z,192
2016-04-12T12:39:36.384Z,192
2016-04-12T12:40:36.324Z,192
2016-04-12T12:41:36.311Z,192
2016-04-12T12:42:36.251Z,188
2016-04-12T12:43:36.223Z,188
2016-04-12T12:44:36.148Z,188
2016-04-12T12:45:36.135Z,184
2016-04-12T12:46:36.043Z,180
2016-04-12T12:47:36.014Z,184
2016-04-12T12:48:35.955Z,180
2016-04-12T12:49:35.926Z,180
2016-04-12T12:50:35.897Z,180
2016-04-12T12:51:35.870Z,184
2016-04-12T12:52:35.778Z,184
2016-04-12T12:53:35.733Z,176
2016-04-12T12:54:35.705Z,180
2016-04-12T12:55:35.645Z,180
2016-04-12T12:56:35.602Z,180
2016-04-12T12:57:35.557Z,180
2016-04-12T12:58:35.513Z,180
2016-04-12T12:59:35.469Z,176
2016-04-12T13:00:35.440Z,172
2016-04-12T13:01:35.380Z,176
2016-04-12T13:02:35.305Z,172
2016-04-12T13:03:35.276Z,172
2016-04-12T13:04:35.232Z,172
2016-04-12T13:05:35.157Z,168
2016-04-12T13:06:35.128Z,168
2016-04-12T13:07:35.068Z,168
2016-04-12T13:08:35.043Z,168
2016-04-12T13:09:34.982Z,164
2016-04-12T13:10:34.955Z,164
2016-04-12T13:11:34.863Z,160
2016-04-12T13:12:34.835Z,164
2016-04-12T13:13:34.775Z,160
2016-04-12T13:14:34.762Z,160
2016-04-12T13:15:34.671Z,156
2016-04-12T13:16:34.673Z,160
2016-04-12T13:17:34.599Z,152
2016-04-12T13:18:34.585Z,152
2016-04-12T13:19:34.526Z,152
2016-04-12T13:20:34.451Z,152
2016-04-12T13:21:34.391Z,156
2016-04-12T13:22:34.362Z,152
2016-04-12T13:23:34.317Z,156
2016-04-12T13:24:34.259Z,152
2016-04-12T13:25:34.214Z,156
2016-04-12T13:26:34.185Z,152
2016-04-12T13:27:34.125Z,156
2016-04-12T13:28:34.112Z,156
2016-04-12T13:29:34.036Z,152
2016-04-12T13:30:33.993Z,156
2016-04-12T13:31:33.933Z,152
2016-04-12T13:32:33.873Z,156
2016-04-12T13:33:33.844Z,152
2016-04-12T13:34:33.800Z,152
2016-04-12T13:35:33.740Z,152
2016-04-12T13:36:33.712Z,152
2016-04-12T13:37:33.636Z,152
2016-04-12T13:38:33.608Z,152
2016-04-12T13:39:33.579Z,148
2016-04-12T13:40:33.504Z,152
2016-04-12T13:41:33.460Z,152
2016-04-12T13:42:33.415Z,152
2016-04-12T13:43:33.683Z,152
2016-04-12T13:44:33.237Z,152
2016-04-12T13:45:33.125Z,148
2016-04-12T13:46:33.889Z,148
2016-04-12T13:47:33.219Z,148
2016-04-12T13:48:33.112Z,148
2016-04-12T13:49:33.366Z,148
2016-04-12T13:50:33.008Z,144
2016-04-12T13:51:32.964Z,144
2016-04-12T13:52:32.936Z,148
2016-04-12T13:53:32.876Z,148
2016-04-12T13:54:32.863Z,148
2016-04-12T13:55:32.772Z,148
2016-04-12T13:56:32.759Z,148
2016-04-12T13:57:32.699Z,152
2016-04-12T13:58:32.670Z,152
2016-04-12T13:59:32.579Z,148
2016-04-12T14:00:32.567Z,148
2016-04-12T14:01:32.491Z,148
2016-04-12T14:02:32.447Z,132
2016-04-12T14:03:32.403Z,128
2016-04-12T14:04:32.390Z,124
2016-04-12T14:05:32.299Z,112
2016-04-12T14:06:32.255Z,108
2016-04-12T14:07:32.210Z,96
2016-04-12T14:08:32.181Z,88
2016-04-12T14:09:32.106Z,84
2016-04-12T14:10:32.062Z,76
2016-04-12T14:11:32.034Z,72
2016-04-12T14:12:31.975Z,72
2016-04-12T14:13:31.930Z,68
2016-04-12T14:14:31.886Z,64
2016-04-12T14:15:31.841Z,60
2016-04-12T14:16:31.781Z,64
2016-04-12T14:17:31.721Z,60
2016-04-12T14:18:31.693Z,60
2016-04-12T14:19:31.774Z,60
2016-04-12T14:20:31.588Z,60
2016-04-12T14:21:31.733Z,68
2016-04-12T14:22:31.516Z,80